• Join FlightAware (Why Join?)
  • Login
  • US Flag 
03:32PM EDT


 

Airport Tracker/Info


-or-


 

Live Flight TrackerFlight Track Log ✈ AAL1613 ✈ 19-Mar-2012 ✈ KORD - KTUS

Flight Track Log - Related Links

Times and Time Zones

All times are in EDT time to prevent confusion due to time zone crossing. See the AAL1613 flight status page for this flight to view local times or setup timezone preferences in your user account.

Time Position Orientation Groundspeed Altitude Reporting Facility
EDT Latitude Longitude Course Direction KTS MPH feet Rate Location/Type
10:08PM 41.9712 -87.9484 163° South  Level FlightAware Approximate
10:09PM 41.9333 -87.9333 270° West 176 203 2,500  Level Chicago TRACON
10:10PM 41.9333 -88.0167 268° West 235 270 4,100 2,040 Climbing Chicago TRACON
10:11PM 41.9294 -88.1608 271° West 282 325 7,800 2,520 Climbing Chicago Center
10:12PM 41.9306 -88.2586 269° West 276 318 10,300 1,800 Climbing Chicago Center
10:13PM 41.9294 -88.3758 251° West 287 330 11,400 1,620 Climbing Chicago Center
10:14PM 41.8992 -88.4933 252° West 315 362 13,600 2,160 Climbing Chicago Center
10:15PM 41.8686 -88.6194 251° West 336 387 15,800 2,040 Climbing Chicago Center
10:16PM 41.8361 -88.7453 249° West 351 404 17,700 1,740 Climbing Chicago Center
10:17PM 41.8033 -88.8625 251° West 373 429 19,300 1,500 Climbing Chicago Center
10:18PM 41.7683 -88.9992 251° West 379 436 20,800 1,500 Climbing Chicago Center
10:19PM 41.7311 -89.1411 251° West 394 453 22,400 1,440 Climbing Chicago Center
10:20PM 41.6939 -89.2831 250° West 400 460 23,700 1,200 Climbing Chicago Center
10:21PM 41.6542 -89.4306 251° West 412 474 24,900 1,200 Climbing Chicago Center
10:22PM 41.6167 -89.5750 249° West 424 488 26,100 1,200 Climbing Chicago Center
10:23PM 41.5744 -89.7247 250° West 424 488 27,300 1,380 Climbing Chicago Center
10:24PM 41.5342 -89.8742 250° West 430 495 28,900 1,380 Climbing Chicago Center
10:25PM 41.4939 -90.0236 251° West 430 495 30,100 1,080 Climbing Chicago Center
10:26PM 41.4511 -90.1867 249° West 431 496 31,100 900 Climbing Chicago Center
10:27PM 41.4083 -90.3328 250° West 431 496 31,900 420 Climbing Chicago Center
10:28PM 41.3672 -90.4814 251° West 426 490 32,000  Climbing Chicago Center
10:29PM 41.3283 -90.6275 247° West 426 490 32,000  Level Chicago Center
10:30PM 41.2828 -90.7703 248° West 426 490 32,000  Level Chicago Center
10:31PM 41.2392 -90.9128 248° West 426 490 32,000  Level Chicago Center
10:32PM 41.1956 -91.0581 247° West 431 496 32,000  Level Chicago Center
10:33PM 41.1494 -91.2031 248° West 431 496 32,000  Level Chicago Center
10:34PM 41.1053 -91.3450 248° West 431 496 32,000  Level Chicago Center
10:35PM 41.0611 -91.4869 247° West 431 496 32,000  Level Chicago Center
10:37PM 40.9978 -91.6872 247° West 417 480 32,000  Level Kansas City Center
10:38PM 40.9550 -91.8206 247° West 412 474 32,000  Level Kansas City Center
10:39PM 40.9100 -91.9622 248° West 412 474 32,000  Level Kansas City Center
10:40PM 40.8672 -92.1011 248° West 412 474 32,000  Level Kansas City Center
10:41PM 40.8181 -92.2589 247° West 420 483 32,000  Level Kansas City Center
10:42PM 40.7708 -92.4028 247° West 420 483 32,000  Level Kansas City Center
10:43PM 40.7253 -92.5467 247° West 425 489 32,000  Level Kansas City Center
10:44PM 40.6775 -92.6928 247° West 425 489 32,000  Level Kansas City Center
10:45PM 40.6297 -92.8389 246° West 430 495 32,000  Level Kansas City Center
10:46PM 40.5817 -92.9819 247° West 436 502 32,000  Level Kansas City Center
10:47PM 40.5356 -93.1278 247° West 441 507 32,000  Level Kansas City Center
10:48PM 40.4911 -93.2650 246° West 441 507 32,000  Level Kansas City Center
10:49PM 40.4425 -93.4075 247° West 441 507 32,000  Level Kansas City Center
10:50PM 40.3958 -93.5500 246° West 441 507 32,000  Level Kansas City Center
10:51PM 40.3469 -93.6922 245° Southwest 435 501 32,000  Level Kansas City Center
10:52PM 40.2978 -93.8314 246° West 435 501 32,000  Level Kansas City Center
10:53PM 40.2506 -93.9706 246° West 430 495 32,000  Level Kansas City Center
10:54PM 40.1972 -94.1256 247° West 425 489 32,000  Level Kansas City Center
10:55PM 40.1558 -94.2536 246° West 425 489 32,000  Level Kansas City Center
10:56PM 40.1039 -94.4028 246° West 420 483 32,000  Level Kansas City Center
10:57PM 40.0561 -94.5411 246° West 420 483 32,000  Level Kansas City Center
10:58PM 40.0100 -94.6767 244° Southwest 420 483 32,000  Level Kansas City Center
10:59PM 39.9642 -94.7983 246° West 420 483 32,000  Level Kansas City Center
11:00PM 39.9136 -94.9494 244° Southwest 420 483 32,000  Level Kansas City Center
11:01PM 39.8631 -95.0844 246° West 420 483 32,000  Level Kansas City Center
11:02PM 39.8228 -95.2031 246° West 410 472 32,000  Level Kansas City Center
11:03PM 39.7719 -95.3511 244° Southwest 410 472 32,000  Level Kansas City Center
11:04PM 39.7231 -95.4800 246° West 404 465 32,000  Level Kansas City Center
11:05PM 39.6781 -95.6114 244° Southwest 404 465 32,000  Level Kansas City Center
11:06PM 39.6331 -95.7319 245° Southwest 409 471 32,000  Level Kansas City Center
11:07PM 39.5794 -95.8792 244° Southwest 409 471 32,000  Level Kansas City Center
11:08PM 39.5319 -96.0075 244° Southwest 404 465 32,000  Level Kansas City Center
11:09PM 39.4867 -96.1275 245° Southwest 404 465 32,000  Level Kansas City Center
11:10PM 39.4369 -96.2661 245° Southwest 397 457 32,000  Level Kansas City Center
11:11PM 39.3933 -96.3858 244° Southwest 407 468 32,000  Level Kansas City Center
11:12PM 39.3453 -96.5136 245° Southwest 407 468 32,000  Level Kansas City Center
11:13PM 39.2928 -96.6569 245° Southwest 400 460 32,000  Level Kansas City Center
11:14PM 39.2556 -96.7603 245° Southwest 400 460 32,000  Level Kansas City Center
11:15PM 39.1983 -96.9167 243° Southwest 400 460 32,000  Level Kansas City Center
11:16PM 39.1500 -97.0408 243° Southwest 400 460 32,000  Level Kansas City Center
11:17PM 39.1058 -97.1542 244° Southwest 400 460 32,000  Level Kansas City Center
11:18PM 39.0525 -97.2967 243° Southwest 400 460 32,000  Level Kansas City Center
11:19PM 39.0081 -97.4100 244° Southwest 400 460 32,000  Level Kansas City Center
11:20PM 38.9592 -97.5361 243° Southwest 400 460 32,000  Level Kansas City Center
11:21PM 38.9033 -97.6778 242° Southwest 401 461 32,000  Level Kansas City Center
11:22PM 38.8519 -97.8036 242° Southwest 401 461 32,000  Level Kansas City Center
11:23PM 38.8006 -97.9292 242° Southwest 401 461 32,000  Level Kansas City Center
11:24PM 38.7489 -98.0544 242° Southwest 401 461 32,000  Level Kansas City Center
11:25PM 38.6994 -98.1744 242° Southwest 401 461 32,000  Level Kansas City Center
11:26PM 38.6475 -98.2969 242° Southwest 401 461 32,000  Level Kansas City Center
11:27PM 38.5956 -98.4217 242° Southwest 401 461 32,000  Level Kansas City Center
11:28PM 38.5436 -98.5464 242° Southwest 401 461 32,000  Level Kansas City Center
11:29PM 38.4914 -98.6708 241° Southwest 401 461 32,000  Level Kansas City Center
11:30PM 38.4389 -98.7925 241° Southwest 401 461 32,000  Level Kansas City Center
11:31PM 38.3867 -98.9142 242° Southwest 401 461 32,000  Level Kansas City Center
11:32PM 38.3361 -99.0356 239° Southwest 401 461 32,000  Level Kansas City Center
11:33PM 38.2794 -99.1564 244° Southwest 401 461 32,000  Level Kansas City Center
11:34PM 38.2331 -99.2778 238° Southwest 395 455 32,000  Level Kansas City Center
11:35PM 38.1736 -99.4008 244° Southwest 395 455 32,000  Level Kansas City Center
11:36PM 38.1364 -99.4958 240° Southwest 395 455 32,000  Level Kansas City Center
11:37PM 38.0719 -99.6367 241° Southwest 388 447 32,000  Level Kansas City Center
11:38PM 38.0189 -99.7569 241° Southwest 388 447 32,000  Level Kansas City Center
11:39PM 37.9722 -99.8644 240° Southwest 388 447 32,000  Level Kansas City Center
11:40PM 37.9189 -99.9817 242° Southwest 380 437 32,000  Level Kansas City Center
11:41PM 37.8653 -100.1067 241° Southwest 380 437 32,000  Level Kansas City Center
11:42PM 37.8161 -100.2186 241° Southwest 375 432 32,000  Level Kansas City Center
11:43PM 37.7717 -100.3206 241° Southwest 369 425 32,000  Level Kansas City Center
11:44PM 37.7222 -100.4322 241° Southwest 369 425 32,000  Level Kansas City Center
11:45PM 37.6681 -100.5539 239° Southwest 363 418 32,000  Level Kansas City Center
11:46PM 37.6167 -100.6625 240° Southwest 363 418 32,000  Level Kansas City Center
11:47PM 37.5650 -100.7736 241° Southwest 363 418 32,000 -240 Level Kansas City Center
11:48PM 37.5175 -100.8797 241° Southwest 369 425 31,600 -600 Descending Kansas City Center
11:49PM 37.4678 -100.9933 240° Southwest 374 430 30,900 -900 Descending Kansas City Center
11:50PM 37.4108 -101.1164 241° Southwest 374 430 29,900 -900 Descending Kansas City Center
11:51PM 37.3606 -101.2297 240° Southwest 374 430 29,100 -900 Descending Kansas City Center
11:52PM 37.3156 -101.3278 239° Southwest 368 423 28,200 -900 Descending Kansas City Center
11:53PM 37.2656 -101.4303 241° Southwest 361 415 27,300 -960 Descending Kansas City Center
11:54PM 37.2153 -101.5431 239° Southwest 350 403 26,300 -660 Descending Kansas City Center
11:55PM 37.1678 -101.6403 240° Southwest 334 384 26,000 -180 Descending Kansas City Center
11:56PM 37.1269 -101.7303 239° Southwest 340 391 26,000  Level Kansas City Center
11:58PM 37.0078 -101.9800 239° Southwest 336 387 26,000  Level Albuquerque Center
11:59PM 36.9658 -102.0661 238° Southwest 336 387 26,000  Level Albuquerque Center
12:00AM 36.9100 -102.1764 238° Southwest 342 394 26,000  Level Albuquerque Center
12:01AM 36.8581 -102.2786 237° Southwest 342 394 26,000  Level Albuquerque Center
12:02AM 36.8078 -102.3753 237° Southwest 342 394 26,000  Level Albuquerque Center
12:03AM 36.7575 -102.4719 239° Southwest 342 394 26,000  Level Albuquerque Center
12:04AM 36.7094 -102.5708 237° Southwest 337 388 26,000  Level Albuquerque Center
12:05AM 36.6628 -102.6592 236° Southwest 337 388 26,000  Level Albuquerque Center
12:06AM 36.6025 -102.7689 237° Southwest 343 395 26,000  Level Albuquerque Center
12:07AM 36.5519 -102.8650 237° Southwest 338 389 26,000  Level Albuquerque Center
12:08AM 36.5014 -102.9633 236° Southwest 338 389 26,000  Level Albuquerque Center
12:09AM 36.4564 -103.0461 237° Southwest 338 389 26,000  Level Albuquerque Center
12:10AM 36.4056 -103.1442 237° Southwest 338 389 26,000  Level Albuquerque Center
12:11AM 36.3547 -103.2425 236° Southwest 338 389 26,000  Level Albuquerque Center
12:12AM 36.2997 -103.3433 235° Southwest 343 395 26,000  Level Albuquerque Center
12:13AM 36.2425 -103.4442 237° Southwest 355 409 26,000  Level Albuquerque Center
12:14AM 36.1875 -103.5472 235° Southwest 361 415 26,000  Level Albuquerque Center
12:15AM 36.1300 -103.6503 237° Southwest 367 422 26,000  Level Albuquerque Center
12:16AM 36.0708 -103.7608 237° Southwest 360 414 26,000  Level Albuquerque Center
12:17AM 36.0156 -103.8661 236° Southwest 360 414 26,000  Level Albuquerque Center
12:18AM 35.9600 -103.9689 237° Southwest 360 414 26,000  Level Albuquerque Center
12:19AM 35.9047 -104.0736 234° Southwest 365 420 26,000  Level Albuquerque Center
12:20AM 35.8467 -104.1733 236° Southwest 365 420 26,000  Level Albuquerque Center
12:21AM 35.7892 -104.2783 237° Southwest 365 420 26,000  Level Albuquerque Center
12:22AM 35.7333 -104.3853 235° Southwest 370 426 26,000  Level Albuquerque Center
12:23AM 35.6753 -104.4872 236° Southwest 370 426 26,000  Level Albuquerque Center
12:24AM 35.6172 -104.5914 235° Southwest 375 432 26,000  Level Albuquerque Center
12:25AM 35.5569 -104.6983 236° Southwest 380 437 26,000  Level Albuquerque Center
12:26AM 35.4989 -104.8022 236° Southwest 380 437 26,000  Level Albuquerque Center
12:27AM 35.4383 -104.9111 235° Southwest 380 437 26,000  Level Albuquerque Center
12:28AM 35.3758 -105.0200 235° Southwest 380 437 26,000  Level Albuquerque Center
12:29AM 35.3175 -105.1236 235° Southwest 380 437 26,000  Level Albuquerque Center
12:30AM 35.2547 -105.2322 237° Southwest 385 443 26,000  Level Albuquerque Center
12:31AM 35.2022 -105.3303 236° Southwest 385 443 26,000  Level Albuquerque Center
12:32AM 35.1433 -105.4358 235° Southwest 385 443 26,000  Level Albuquerque Center
12:33AM 35.0844 -105.5386 234° Southwest 385 443 26,000  Level Albuquerque Center
12:34AM 35.0192 -105.6467 238° Southwest 385 443 26,000  Level Albuquerque Center
12:35AM 34.9625 -105.7569 234° Southwest 391 450 26,000  Level Albuquerque Center
12:36AM 34.8992 -105.8644 234° Southwest 391 450 26,000  Level Albuquerque Center
12:37AM 34.8356 -105.9694 237° Southwest 393 452 26,000  Level Albuquerque Center
12:38AM 34.7744 -106.0842 234° Southwest 388 447 26,000  Level Albuquerque Center
12:39AM 34.7086 -106.1939 241° Southwest 388 447 26,000  Level Albuquerque Center
12:40AM 34.6575 -106.3058 235° Southwest 388 447 26,000  Level Albuquerque Center
12:41AM 34.5939 -106.4175 236° Southwest 394 453 26,000  Level Albuquerque Center
12:42AM 34.5342 -106.5267 236° Southwest 394 453 26,000  Level Albuquerque Center
12:43AM 34.4742 -106.6356 237° Southwest 399 459 26,000  Level Albuquerque Center
12:44AM 34.4144 -106.7469 240° Southwest 399 459 26,000  Level Albuquerque Center
12:45AM 34.3647 -106.8503 237° Southwest 399 459 26,000  Level Albuquerque Center
12:46AM 34.3025 -106.9664 238° Southwest 405 466 26,000  Level Albuquerque Center
12:47AM 34.2444 -107.0797 237° Southwest 416 479 26,000  Level Albuquerque Center
12:48AM 34.1842 -107.1931 237° Southwest 416 479 26,000  Level Albuquerque Center
12:49AM 34.1217 -107.3108 237° Southwest 416 479 26,000  Level Albuquerque Center
12:50AM 34.0611 -107.4239 237° Southwest 416 479 26,000 -60 Level Albuquerque Center
12:51AM 34.0006 -107.5364 237° Southwest 416 479 25,900  Descending Albuquerque Center
12:52AM 33.9314 -107.6639 237° Southwest 416 479 26,000  Climbing Albuquerque Center
12:53AM 33.8686 -107.7789 237° Southwest 416 479 26,000  Level Albuquerque Center
12:54AM 33.8075 -107.8908 237° Southwest 416 479 26,000  Level Albuquerque Center
12:55AM 33.7486 -107.9981 237° Southwest 408 470 26,000  Level Albuquerque Center
12:56AM 33.6875 -108.1122 237° Southwest 403 464 26,000  Level Albuquerque Center
12:57AM 33.6306 -108.2167 237° Southwest 396 456 26,000  Level Albuquerque Center
12:58AM 33.5692 -108.3281 237° Southwest 396 456 26,000  Level Albuquerque Center
12:59AM 33.5097 -108.4394 236° Southwest 396 456 26,000  Level Albuquerque Center
01:00AM 33.4544 -108.5383 236° Southwest 401 461 26,000  Level Albuquerque Center
01:01AM 33.3908 -108.6517 237° Southwest 401 461 26,000  Level Albuquerque Center
01:02AM 33.3289 -108.7650 236° Southwest 412 474 26,000  Level Albuquerque Center
01:03AM 33.2650 -108.8783 235° Southwest 412 474 26,000  Level Albuquerque Center
01:04AM 33.1903 -109.0036 239° Southwest 418 481 26,000  Level Albuquerque Center
01:05AM 33.1411 -109.1017 236° Southwest 418 481 26,000  Level Albuquerque Center
01:06AM 33.0703 -109.2267 237° Southwest 413 475 26,000  Level Albuquerque Center
01:07AM 33.0081 -109.3392 230° Southwest 408 470 26,000  Level Albuquerque Center
01:08AM 32.9331 -109.4461 221° Southwest 418 481 26,000 -180 Level Albuquerque Center
01:09AM 32.8417 -109.5403 220° Southwest 423 487 25,700 -660 Descending Albuquerque Center
01:10AM 32.7547 -109.6269 219° Southwest 428 493 24,700 -1,020 Descending Albuquerque Center
01:11AM 32.6717 -109.7061 194° South 408 470 23,700 -1,020 Descending Albuquerque Center
01:12AM 32.5647 -109.7378 182° South 393 452 22,700 -1,140 Descending Albuquerque Center
01:13AM 32.4542 -109.7419 180° South 385 443 21,500 -1,380 Descending Albuquerque Center
01:14AM 32.3583 -109.7417 190° South 390 449 20,000 -1,500 Descending Albuquerque Center
01:15AM 32.2639 -109.7614 246° West 376 433 18,500 -1,500 Descending Albuquerque Center
01:16AM 32.2308 -109.8511 261° West 292 336 17,000 -1,800 Descending Albuquerque Center
01:17AM 32.2186 -109.9439 261° West 266 306 14,900 -1,500 Descending Albuquerque Center
01:18AM 32.2058 -110.0392 261° West 281 323 14,000 -540 Descending Albuquerque Center
01:19AM 32.1936 -110.1297 263° West 294 338 14,000  Level Albuquerque Center
01:20AM 32.1828 -110.2272 263° West 295 339 14,000  Level Albuquerque Center
01:21AM 32.1722 -110.3250 250° West 295 339 14,000 -240 Level Albuquerque Center
01:22AM 32.1447 -110.4147 224° Southwest 289 333 13,600 -1,140 Descending Albuquerque Center
01:23AM 32.0869 -110.4814 227° Southwest 295 339 11,800 -1,500 Descending Albuquerque Center
01:24AM 32.0178 -110.5694 229° Southwest 257 296 10,400 -1,260 Descending Albuquerque Center
01:25AM 31.9744 -110.6289 230° Southwest 210 242 8,900 -1,440 Descending Albuquerque Center
01:26AM 31.9356 -110.6836 280° West 205 236 7,400 -840 Descending Albuquerque Center
01:27AM 31.9442 -110.7428 317° Northwest 189 217 7,300 -480 Descending Albuquerque Center
01:28AM 31.9786 -110.7808 311° West 172 198 6,500 -900 Descending Albuquerque Center
01:29AM 32.0067 -110.8186 318° Northwest 153 176 5,600 -900 Descending Albuquerque Center
01:30AM 32.0350 -110.8492 316° Northwest 143 165 4,700 -840 Descending Albuquerque Center
01:32AM 32.0633 -110.8819 315° West 139 160 3,900 -900 Descending Albuquerque Center
01:33AM 32.0914 -110.9150 315° West 139 160 3,000 -900 Descending Albuquerque Center